createdAt,value
2018-06-02T00:01:16.800Z,101461.55
2018-06-02T00:03:45.023Z,101454.40
2018-06-02T00:06:13.229Z,101459.03
2018-06-02T00:08:41.435Z,101460.52
2018-06-02T00:11:09.647Z,101452.84
2018-06-02T00:13:37.826Z,101455.23
2018-06-02T00:16:06.011Z,101461.60
2018-06-02T00:18:47.138Z,101461.09
2018-06-02T00:21:17.405Z,101464.36
2018-06-02T00:23:45.625Z,101457.92
2018-06-02T00:26:13.824Z,101462.57
2018-06-02T00:28:42.009Z,101453.87
2018-06-02T00:31:10.186Z,101458.58
2018-06-02T00:33:38.456Z,101460.75
2018-06-02T00:36:06.610Z,101463.09
2018-06-02T00:38:34.764Z,101456.88
2018-06-02T00:41:02.951Z,101466.89
2018-06-02T00:43:31.128Z,101463.55
2018-06-02T00:45:59.329Z,101463.92
2018-06-02T00:48:27.508Z,101468.92
2018-06-02T00:50:55.769Z,101467.95
2018-06-02T00:53:23.936Z,101464.98
2018-06-02T00:55:52.143Z,101466.63
2018-06-02T00:58:20.307Z,101459.95
2018-06-02T01:00:48.523Z,101466.22
2018-06-02T01:03:16.691Z,101464.05
2018-06-02T01:05:44.911Z,101454.61
2018-06-02T01:08:13.077Z,101460.75
2018-06-02T01:10:41.301Z,101455.35
2018-06-02T01:13:09.501Z,101459.02
2018-06-02T01:15:37.665Z,101454.45
2018-06-02T01:18:05.874Z,101454.45
2018-06-02T01:20:34.050Z,101454.17
2018-06-02T01:23:02.241Z,101449.55
2018-06-02T01:25:30.440Z,101446.87
2018-06-02T01:27:58.648Z,101448.58
2018-06-02T01:30:26.808Z,101441.70
2018-06-02T01:32:54.973Z,101449.17
2018-06-02T01:35:23.199Z,101449.97
2018-06-02T01:37:51.401Z,101448.64
2018-06-02T01:40:19.580Z,101450.27
2018-06-02T01:42:47.773Z,101440.30
2018-06-02T01:45:16.792Z,101442.27
2018-06-02T01:47:45.000Z,101440.64
2018-06-02T01:50:13.169Z,101439.53
2018-06-02T01:52:41.391Z,101442.54
2018-06-02T01:55:09.569Z,101438.41
2018-06-02T01:57:37.776Z,101431.53
2018-06-02T02:00:05.982Z,101430.56
2018-06-02T02:02:34.195Z,101436.37
2018-06-02T02:05:02.363Z,101439.20
2018-06-02T02:07:30.518Z,101434.93
2018-06-02T02:09:58.733Z,101431.62
2018-06-02T02:12:26.914Z,101434.30
2018-06-02T02:14:55.088Z,101436.80
2018-06-02T02:17:23.340Z,101432.70
2018-06-02T02:19:51.494Z,101428.69
2018-06-02T02:22:19.682Z,101433.13
2018-06-02T02:24:47.854Z,101431.06
2018-06-02T02:27:16.045Z,101432.59
2018-06-02T02:29:44.225Z,101437.73
2018-06-02T02:32:12.397Z,101441.37
2018-06-02T02:34:40.594Z,101441.77
2018-06-02T02:37:08.806Z,101442.84
2018-06-02T02:39:36.995Z,101434.83
2018-06-02T02:42:05.614Z,101435.33
2018-06-02T02:44:33.830Z,101443.00
2018-06-02T02:47:02.029Z,101444.44
2018-06-02T02:49:30.226Z,101448.11
2018-06-02T02:51:58.423Z,101442.70
2018-06-02T02:54:26.649Z,101442.94
2018-06-02T02:56:54.843Z,101444.64
2018-06-02T02:59:23.005Z,101445.04
2018-06-02T03:01:51.924Z,101447.91
2018-06-02T03:04:20.112Z,101445.44
2018-06-02T03:06:48.309Z,101452.17
2018-06-02T03:09:16.501Z,101456.98
2018-06-02T03:11:45.132Z,101450.61
2018-06-02T03:14:13.355Z,101444.30
2018-06-02T03:16:41.573Z,101444.91
2018-06-02T03:19:09.729Z,101451.84
2018-06-02T03:21:38.415Z,101445.77
2018-06-02T03:24:06.621Z,101447.77
2018-06-02T03:26:34.844Z,101445.07
2018-06-02T03:29:03.035Z,101437.83
2018-06-02T03:31:31.201Z,101436.03
2018-06-02T03:33:59.486Z,101443.36
2018-06-02T03:36:27.662Z,101436.33
2018-06-02T03:38:55.871Z,101437.36
2018-06-02T03:41:24.039Z,101439.05
2018-06-02T03:43:52.239Z,101446.54
2018-06-02T03:46:20.426Z,101444.47
2018-06-02T03:48:48.634Z,101442.33
2018-06-02T03:51:16.847Z,101442.66
2018-06-02T03:53:45.002Z,101450.73
2018-06-02T03:56:13.209Z,101449.84
2018-06-02T03:58:41.371Z,101444.90
2018-06-02T04:01:09.545Z,101451.17
2018-06-02T04:03:37.765Z,101455.81
2018-06-02T04:06:05.926Z,101450.20
2018-06-02T04:08:34.134Z,101451.70
2018-06-02T04:11:02.319Z,101448.84
2018-06-02T04:13:30.518Z,101449.73
2018-06-02T04:15:58.746Z,101455.04
2018-06-02T04:18:26.921Z,101461.41
2018-06-02T04:20:55.129Z,101465.58
2018-06-02T04:23:23.305Z,101460.16
2018-06-02T04:25:51.503Z,101459.86
2018-06-02T04:28:19.668Z,101460.31
2018-06-02T04:30:47.859Z,101462.55
2018-06-02T04:33:16.088Z,101465.22
2018-06-02T04:35:44.280Z,101464.23
2018-06-02T04:38:12.459Z,101458.44
2018-06-02T04:40:40.740Z,101455.83
2018-06-02T04:43:08.931Z,101462.23
2018-06-02T04:45:37.082Z,101464.32
2018-06-02T04:48:05.279Z,101463.87
2018-06-02T04:50:33.495Z,101464.34
2018-06-02T04:53:01.653Z,101474.14
2018-06-02T04:55:30.131Z,101466.05
2018-06-02T04:57:58.302Z,101465.52
2018-06-02T05:00:26.571Z,101471.25
2018-06-02T05:02:54.758Z,101477.79
2018-06-02T05:05:22.990Z,101477.62
2018-06-02T05:07:51.217Z,101479.47
2018-06-02T05:10:19.429Z,101479.14
2018-06-02T05:12:47.630Z,101483.45
2018-06-02T05:15:15.803Z,101483.02
2018-06-02T05:17:44.022Z,101487.87
2018-06-02T05:20:12.226Z,101492.03
2018-06-02T05:22:40.439Z,101490.92
2018-06-02T05:25:08.666Z,101491.72
2018-06-02T05:27:36.841Z,101495.04
2018-06-02T05:30:05.041Z,101495.91
2018-06-02T05:32:33.212Z,101498.68
2018-06-02T05:35:01.909Z,101505.02
2018-06-02T05:37:30.177Z,101506.02
2018-06-02T05:39:59.707Z,101510.64
2018-06-02T05:55:28.024Z,101506.05
2018-06-02T05:57:56.478Z,101508.05
2018-06-02T06:00:25.275Z,101505.41
2018-06-02T06:02:53.841Z,101509.41
2018-06-02T06:05:22.151Z,101508.94
2018-06-02T06:07:50.372Z,101507.41
2018-06-02T06:10:18.544Z,101501.75
2018-06-02T06:12:46.728Z,101505.45
2018-06-02T06:15:14.951Z,101504.32
2018-06-02T06:17:43.158Z,101507.56
2018-06-02T06:20:11.383Z,101507.13
2018-06-02T06:22:39.552Z,101509.05
2018-06-02T06:25:07.749Z,101507.12
2018-06-02T06:27:35.927Z,101504.11
2018-06-02T06:30:04.147Z,101500.02
2018-06-02T06:32:32.333Z,101510.80
2018-06-02T06:35:00.500Z,101514.88
2018-06-02T06:37:28.698Z,101514.59
2018-06-02T06:39:56.873Z,101513.23
2018-06-02T06:42:25.074Z,101513.42
2018-06-02T06:44:53.223Z,101518.97
2018-06-02T06:47:21.391Z,101514.22
2018-06-02T06:49:49.604Z,101511.41
2018-06-02T06:52:17.780Z,101516.48
2018-06-02T06:54:45.975Z,101507.46
2018-06-02T06:57:14.165Z,101506.40
2018-06-02T06:59:42.338Z,101507.89
2018-06-02T07:02:10.539Z,101503.04
2018-06-02T07:04:38.742Z,101510.83
2018-06-02T07:07:06.948Z,101511.59
2018-06-02T07:09:35.109Z,101518.75
2018-06-02T07:12:03.353Z,101512.39
2018-06-02T07:14:31.489Z,101511.09
2018-06-02T07:16:59.762Z,101518.55
2018-06-02T07:19:27.932Z,101514.08
2018-06-02T07:21:56.134Z,101523.33
2018-06-02T07:24:24.343Z,101525.06
2018-06-02T07:26:52.534Z,101521.23
2018-06-02T07:29:20.788Z,101518.83
2018-06-02T07:31:48.963Z,101524.87
2018-06-02T07:34:17.131Z,101527.91
2018-06-02T07:36:45.318Z,101525.73
2018-06-02T07:39:13.483Z,101523.90
2018-06-02T07:41:41.673Z,101520.43
2018-06-02T07:44:09.827Z,101524.58
2018-06-02T07:46:38.056Z,101528.71
2018-06-02T07:49:06.232Z,101528.47
2018-06-02T07:51:34.406Z,101528.30
2018-06-02T07:54:02.605Z,101527.78
2018-06-02T07:56:30.773Z,101526.95
2018-06-02T07:58:59.045Z,101533.69
2018-06-02T08:01:27.220Z,101529.91
2018-06-02T08:03:55.400Z,101536.38
2018-06-02T08:06:23.597Z,101522.74
2018-06-02T08:08:51.774Z,101520.81
2018-06-02T08:11:19.970Z,101524.72
2018-06-02T08:13:48.179Z,101521.94
2018-06-02T08:16:16.349Z,101529.49
2018-06-02T08:18:44.536Z,101526.34
2018-06-02T08:21:12.718Z,101533.83
2018-06-02T08:23:40.936Z,101529.72
2018-06-02T08:26:09.097Z,101537.54
2018-06-02T08:28:37.281Z,101532.15
2018-06-02T08:31:05.474Z,101530.59
2018-06-02T08:33:33.724Z,101531.53
2018-06-02T08:36:01.906Z,101535.30
2018-06-02T08:38:30.074Z,101532.14
2018-06-02T08:43:35.930Z,101533.52
2018-06-02T08:46:04.122Z,101526.98
2018-06-02T08:48:32.291Z,101533.67
2018-06-02T08:51:00.501Z,101535.03
2018-06-02T08:53:28.673Z,101541.28
2018-06-02T08:55:56.870Z,101540.03
2018-06-02T08:58:25.037Z,101545.06
2018-06-02T09:00:53.257Z,101545.81
2018-06-02T09:03:21.523Z,101542.73
2018-06-02T09:05:49.694Z,101546.84
2018-06-02T09:08:17.905Z,101546.34
2018-06-02T09:10:46.069Z,101547.56
2018-06-02T09:13:14.253Z,101549.16
2018-06-02T09:15:42.448Z,101551.04
2018-06-02T09:18:10.598Z,101550.14
2018-06-02T09:20:38.843Z,101547.94
2018-06-02T09:23:06.999Z,101550.83
2018-06-02T09:25:35.172Z,101554.72
2018-06-02T09:28:03.809Z,101550.23
2018-06-02T09:30:31.981Z,101553.19
2018-06-02T09:33:00.150Z,101555.83
2018-06-02T09:35:28.351Z,101552.63
2018-06-02T09:37:56.574Z,101555.08
2018-06-02T09:40:24.734Z,101544.55
2018-06-02T09:42:52.920Z,101551.77
2018-06-02T09:45:21.084Z,101559.66
2018-06-02T09:47:49.280Z,101549.76
2018-06-02T09:50:17.490Z,101557.78
2018-06-02T09:52:45.681Z,101552.25
2018-06-02T09:55:13.897Z,101555.81
2018-06-02T09:57:42.062Z,101552.19
2018-06-02T10:00:10.266Z,101552.79
2018-06-02T10:02:38.470Z,101546.72
2018-06-02T10:05:06.696Z,101553.15
2018-06-02T10:07:34.886Z,101554.60
2018-06-02T10:10:03.249Z,101558.23
2018-06-02T10:12:31.463Z,101555.80
2018-06-02T10:14:59.633Z,101555.05
2018-06-02T10:17:27.823Z,101553.11
2018-06-02T10:19:55.990Z,101551.62
2018-06-02T10:22:24.201Z,101556.46
2018-06-02T10:24:52.381Z,101546.13
2018-06-02T10:27:20.531Z,101548.52
2018-06-02T10:29:48.682Z,101552.89
2018-06-02T10:32:16.980Z,101549.20
2018-06-02T10:34:45.119Z,101549.88
2018-06-02T10:37:13.321Z,101550.38
2018-06-02T10:39:41.488Z,101549.09
2018-06-02T10:42:10.492Z,101547.80
2018-06-02T10:44:38.718Z,101533.80
2018-06-02T10:47:06.822Z,101535.43
2018-06-02T10:49:35.014Z,101540.42
2018-06-02T10:52:03.191Z,101539.28
2018-06-02T10:54:31.421Z,101544.34
2018-06-02T10:56:59.617Z,101541.11
2018-06-02T10:59:27.800Z,101552.60
2018-06-02T11:01:55.997Z,101551.43
2018-06-02T11:04:24.196Z,101552.72
2018-06-02T11:06:52.352Z,101545.45
2018-06-02T11:09:21.476Z,101543.62
2018-06-02T11:11:49.644Z,101540.56
2018-06-02T11:14:17.825Z,101539.95
2018-06-02T11:16:46.047Z,101538.68
2018-06-02T11:19:14.210Z,101543.99
2018-06-02T11:21:42.409Z,101543.99
2018-06-02T11:24:10.550Z,101546.73
2018-06-02T11:26:38.744Z,101541.54
2018-06-02T11:29:06.941Z,101538.25
2018-06-02T11:31:35.088Z,101543.54
2018-06-02T11:34:03.273Z,101537.88
2018-06-02T11:36:31.453Z,101540.80
2018-06-02T11:38:59.629Z,101541.00
2018-06-02T11:41:27.806Z,101541.11
2018-06-02T11:43:56.006Z,101548.25
2018-06-02T11:46:24.222Z,101538.50
2018-06-02T11:48:52.398Z,101535.55
2018-06-02T11:51:20.576Z,101534.09
2018-06-02T11:53:48.746Z,101537.61
2018-06-02T11:56:17.538Z,101532.78
2018-06-02T11:58:45.769Z,101532.73
2018-06-02T12:01:13.966Z,101524.45
2018-06-02T12:03:42.149Z,101522.96
2018-06-02T12:06:10.358Z,101521.48
2018-06-02T12:08:38.510Z,101524.40
2018-06-02T12:11:06.739Z,101516.70
2018-06-02T12:13:34.939Z,101508.67
2018-06-02T12:16:03.140Z,101517.16
2018-06-02T12:18:31.314Z,101505.98
2018-06-02T12:20:59.531Z,101510.39
2018-06-02T12:23:27.771Z,101510.07
2018-06-02T12:25:55.986Z,101504.67
2018-06-02T12:28:24.240Z,101506.20
2018-06-02T12:30:52.406Z,101506.54
2018-06-02T12:33:20.613Z,101501.83
2018-06-02T12:35:48.783Z,101504.38
2018-06-02T12:38:17.275Z,101501.67
2018-06-02T12:40:45.440Z,101503.20
2018-06-02T12:43:13.623Z,101506.09
2018-06-02T12:45:41.789Z,101506.19
2018-06-02T12:48:09.994Z,101507.88
2018-06-02T12:50:38.204Z,101507.12
2018-06-02T12:53:06.361Z,101506.27
2018-06-02T12:55:34.635Z,101509.23
2018-06-02T12:58:03.071Z,101509.02
2018-06-02T13:00:31.356Z,101510.85
2018-06-02T13:02:59.538Z,101510.92
2018-06-02T13:05:27.753Z,101514.16
2018-06-02T13:07:55.939Z,101513.07
2018-06-02T13:10:24.102Z,101516.27
2018-06-02T13:12:52.292Z,101518.21
2018-06-02T13:15:20.495Z,101516.17
2018-06-02T13:17:48.765Z,101510.21
2018-06-02T13:20:16.969Z,101504.67
2018-06-02T13:22:45.165Z,101506.52
2018-06-02T13:25:14.046Z,101513.33
2018-06-02T13:27:42.307Z,101508.48
2018-06-02T13:30:10.538Z,101510.72
2018-06-02T13:32:38.711Z,101505.14
2018-06-02T13:35:06.919Z,101503.95
2018-06-02T13:37:35.066Z,101499.89
2018-06-02T13:40:03.254Z,101503.70
2018-06-02T13:42:31.447Z,101497.73
2018-06-02T13:44:59.625Z,101502.99
2018-06-02T13:47:27.809Z,101498.17
2018-06-02T13:49:56.020Z,101501.16
2018-06-02T13:52:24.188Z,101498.28
2018-06-02T13:54:52.363Z,101497.05
2018-06-02T13:57:20.537Z,101488.74
2018-06-02T13:59:48.922Z,101486.08
2018-06-02T14:02:17.774Z,101480.98
2018-06-02T14:04:45.976Z,101492.49
2018-06-02T14:07:14.144Z,101488.70
2018-06-02T14:09:42.777Z,101480.92
2018-06-02T14:12:11.020Z,101480.28
2018-06-02T14:14:39.251Z,101473.02
2018-06-02T14:17:07.421Z,101477.55
2018-06-02T14:19:35.632Z,101481.84
2018-06-02T14:22:03.784Z,101483.11
2018-06-02T14:24:31.996Z,101475.11
2018-06-02T14:27:00.185Z,101470.67
2018-06-02T14:29:28.387Z,101467.92
2018-06-02T14:31:56.576Z,101469.85
2018-06-02T14:34:24.809Z,101463.53
2018-06-02T14:36:53.020Z,101470.64
2018-06-02T14:39:21.229Z,101478.31
2018-06-02T14:41:49.408Z,101472.64
2018-06-02T14:44:17.600Z,101462.45
2018-06-02T14:46:45.768Z,101463.11
2018-06-02T14:49:13.977Z,101462.75
2018-06-02T14:51:42.173Z,101463.46
2018-06-02T14:54:10.375Z,101460.44
2018-06-02T14:56:38.575Z,101461.34
2018-06-02T14:59:06.765Z,101463.37
2018-06-02T15:01:34.991Z,101468.81
2018-06-02T15:04:03.145Z,101465.30
2018-06-02T15:06:31.328Z,101462.94
2018-06-02T15:08:59.497Z,101467.09
2018-06-02T15:11:27.727Z,101458.23
2018-06-02T15:13:55.968Z,101452.02
2018-06-02T15:16:24.161Z,101450.48
2018-06-02T15:18:52.402Z,101449.25
2018-06-02T15:21:20.547Z,101450.03
2018-06-02T15:23:48.736Z,101447.00
2018-06-02T15:26:16.896Z,101446.95
2018-06-02T15:28:45.105Z,101445.85
2018-06-02T15:31:13.309Z,101450.79
2018-06-02T15:33:41.461Z,101448.81
2018-06-02T15:36:09.703Z,101444.44
2018-06-02T15:38:37.859Z,101444.91
2018-06-02T15:41:06.026Z,101445.30
2018-06-02T15:43:34.248Z,101446.33
2018-06-02T15:46:02.415Z,101446.06
2018-06-02T15:48:30.585Z,101445.68
2018-06-02T15:50:58.731Z,101438.28
2018-06-02T15:53:26.933Z,101442.61
2018-06-02T15:55:55.100Z,101445.03
2018-06-02T15:58:23.276Z,101445.00
2018-06-02T16:00:51.451Z,101440.83
2018-06-02T16:03:19.636Z,101446.05
2018-06-02T16:05:48.037Z,101450.22
2018-06-02T16:08:16.257Z,101444.49
2018-06-02T16:10:45.425Z,101448.72
2018-06-02T16:13:13.772Z,101445.16
2018-06-02T16:15:42.079Z,101443.78
2018-06-02T16:18:10.839Z,101447.39
2018-06-02T16:20:39.477Z,101446.64
2018-06-02T16:23:07.831Z,101440.25
2018-06-02T16:25:36.510Z,101438.00
2018-06-02T16:28:04.934Z,101444.34
2018-06-02T16:30:33.428Z,101450.99
2018-06-02T16:33:01.600Z,101455.62
2018-06-02T16:35:30.083Z,101452.38
2018-06-02T16:37:58.513Z,101453.23
2018-06-02T16:40:26.876Z,101447.69
2018-06-02T16:42:55.167Z,101445.61
2018-06-02T16:45:23.507Z,101440.77
2018-06-02T16:47:51.822Z,101451.45
2018-06-02T16:50:20.275Z,101448.11
2018-06-02T16:52:49.295Z,101442.95
2018-06-02T16:55:17.670Z,101443.44
2018-06-02T16:57:46.100Z,101449.52
2018-06-02T17:00:14.586Z,101449.88
2018-06-02T17:02:42.876Z,101448.70
2018-06-02T17:05:11.382Z,101442.37
2018-06-02T17:07:39.535Z,101449.05
2018-06-02T17:10:07.693Z,101441.98
2018-06-02T17:12:36.393Z,101445.92
2018-06-02T17:15:04.569Z,101437.95
2018-06-02T17:17:32.761Z,101436.20
2018-06-02T17:20:00.960Z,101442.11
2018-06-02T17:22:29.115Z,101446.61
2018-06-02T17:24:57.286Z,101448.39
2018-06-02T17:27:25.453Z,101446.49
2018-06-02T17:29:53.626Z,101449.56
2018-06-02T17:32:21.777Z,101450.91
2018-06-02T17:34:49.963Z,101451.17
2018-06-02T17:37:18.116Z,101448.97
2018-06-02T17:39:46.305Z,101447.31
2018-06-02T17:42:14.454Z,101447.23
2018-06-02T17:44:42.634Z,101447.56
2018-06-02T17:47:10.829Z,101441.41
2018-06-02T17:49:39.000Z,101437.01
2018-06-02T17:52:07.199Z,101439.03
2018-06-02T17:54:35.947Z,101440.98
2018-06-02T17:57:04.125Z,101435.41
2018-06-02T17:59:32.307Z,101440.43
2018-06-02T18:02:00.472Z,101429.91
2018-06-02T18:04:28.668Z,101435.77
2018-06-02T18:06:56.825Z,101430.08
2018-06-02T18:09:25.023Z,101426.25
2018-06-02T18:11:53.203Z,101430.98
2018-06-02T18:14:21.396Z,101429.42
2018-06-02T18:16:49.565Z,101431.69
2018-06-02T18:19:17.753Z,101427.98
2018-06-02T18:21:45.991Z,101434.45
2018-06-02T18:24:14.269Z,101436.85
2018-06-02T18:26:42.487Z,101434.66
2018-06-02T18:29:10.647Z,101439.38
2018-06-02T18:31:38.858Z,101442.36
2018-06-02T18:34:07.053Z,101442.17
2018-06-02T18:36:35.270Z,101440.58
2018-06-02T18:39:03.458Z,101443.27
2018-06-02T18:41:31.655Z,101434.80
2018-06-02T18:43:59.812Z,101435.10
2018-06-02T18:46:27.970Z,101429.07
2018-06-02T18:48:56.155Z,101429.69
2018-06-02T18:51:24.299Z,101429.46
2018-06-02T18:53:52.503Z,101431.88
2018-06-02T18:56:20.680Z,101429.38
2018-06-02T18:58:48.865Z,101429.34
2018-06-02T19:01:17.087Z,101430.95
2018-06-02T19:03:45.250Z,101436.30
2018-06-02T19:06:13.432Z,101432.27
2018-06-02T19:08:41.609Z,101434.17
2018-06-02T19:11:09.799Z,101429.92
2018-06-02T19:13:37.966Z,101430.13
2018-06-02T19:16:06.186Z,101434.36
2018-06-02T19:18:34.375Z,101431.01
2018-06-02T19:21:02.545Z,101431.47
2018-06-02T19:23:30.738Z,101438.98
2018-06-02T19:25:58.903Z,101434.25
2018-06-02T19:28:27.102Z,101431.42
2018-06-02T19:30:55.288Z,101434.41
2018-06-02T19:33:23.590Z,101434.58
2018-06-02T19:35:51.753Z,101438.80
2018-06-02T19:38:19.935Z,101442.70
2018-06-02T19:40:48.122Z,101443.79
2018-06-02T19:43:16.385Z,101452.08
2018-06-02T19:45:44.555Z,101459.45
2018-06-02T19:48:12.798Z,101462.02
2018-06-02T19:50:40.958Z,101463.91
2018-06-02T19:53:09.143Z,101459.07
2018-06-02T19:55:37.334Z,101464.63
2018-06-02T19:58:05.504Z,101462.34
2018-06-02T20:00:33.944Z,101470.09
2018-06-02T20:03:02.143Z,101471.55
2018-06-02T20:05:30.359Z,101462.86
2018-06-02T20:07:58.565Z,101471.86
2018-06-02T20:10:26.766Z,101472.57
2018-06-02T20:12:54.944Z,101480.38
2018-06-02T20:15:23.104Z,101477.14
2018-06-02T20:17:51.385Z,101474.23
2018-06-02T20:20:19.587Z,101477.30
2018-06-02T20:22:47.781Z,101483.53
2018-06-02T20:25:15.963Z,101488.70
2018-06-02T20:27:44.152Z,101491.22
2018-06-02T20:30:12.352Z,101491.38
2018-06-02T20:32:40.567Z,101492.61
2018-06-02T20:35:08.739Z,101494.23
2018-06-02T20:37:36.900Z,101495.20
2018-06-02T20:40:05.111Z,101501.20
2018-06-02T20:42:33.311Z,101490.19
2018-06-02T20:45:01.506Z,101498.63
2018-06-02T20:47:29.692Z,101500.28
2018-06-02T20:49:57.899Z,101499.42
2018-06-02T20:52:26.097Z,101498.28
2018-06-02T20:54:54.282Z,101495.09
2018-06-02T20:57:22.492Z,101501.91
2018-06-02T20:59:50.701Z,101503.16
2018-06-02T21:02:18.883Z,101507.65
2018-06-02T21:04:47.079Z,101513.02
2018-06-02T21:07:15.269Z,101513.49
2018-06-02T21:09:43.440Z,101507.77
2018-06-02T21:12:11.634Z,101507.30
2018-06-02T21:14:39.809Z,101508.80
2018-06-02T21:17:08.010Z,101523.19
2018-06-02T21:19:36.180Z,101515.27
2018-06-02T21:22:04.336Z,101521.06
2018-06-02T21:24:32.567Z,101521.88
2018-06-02T21:27:00.752Z,101515.27
2018-06-02T21:29:28.921Z,101523.81
2018-06-02T21:31:57.124Z,101523.23
2018-06-02T21:34:25.302Z,101524.77
2018-06-02T21:36:53.476Z,101528.31
2018-06-02T21:39:21.681Z,101527.92
2018-06-02T21:41:49.856Z,101527.02
2018-06-02T21:44:18.013Z,101531.22
2018-06-02T21:46:46.245Z,101534.80
2018-06-02T21:49:14.432Z,101532.39
2018-06-02T21:51:42.632Z,101537.67
2018-06-02T21:54:10.811Z,101531.02
2018-06-02T21:56:39.033Z,101541.50
2018-06-02T21:59:07.230Z,101542.77
2018-06-02T22:01:35.404Z,101541.38
2018-06-02T22:04:03.620Z,101542.31
2018-06-02T22:06:31.841Z,101543.26
2018-06-02T22:09:00.072Z,101553.30
2018-06-02T22:11:28.247Z,101551.09
2018-06-02T22:13:56.454Z,101551.15
2018-06-02T22:16:24.650Z,101553.12
2018-06-02T22:18:52.864Z,101548.98
2018-06-02T22:21:21.037Z,101555.77
2018-06-02T22:23:49.511Z,101548.13
2018-06-02T22:26:17.762Z,101552.48
2018-06-02T22:28:45.941Z,101547.19
2018-06-02T22:31:14.146Z,101546.13
2018-06-02T22:33:42.365Z,101546.71
2018-06-02T22:36:10.598Z,101551.23
2018-06-02T22:38:38.797Z,101548.34
2018-06-02T22:41:06.974Z,101546.46
2018-06-02T22:43:35.171Z,101554.42
2018-06-02T22:46:03.327Z,101557.64
2018-06-02T22:48:31.558Z,101553.73
2018-06-02T22:50:59.761Z,101557.28
2018-06-02T22:53:27.988Z,101559.86
2018-06-02T22:55:56.171Z,101558.29
2018-06-02T22:58:24.371Z,101560.98
2018-06-02T23:00:52.578Z,101560.75
2018-06-02T23:03:20.761Z,101566.36
2018-06-02T23:05:48.962Z,101564.09
2018-06-02T23:08:17.201Z,101565.97
2018-06-02T23:10:45.397Z,101563.66
2018-06-02T23:13:13.585Z,101559.75
2018-06-02T23:15:41.795Z,101562.00
2018-06-02T23:18:09.970Z,101558.50
2018-06-02T23:20:38.188Z,101560.85
2018-06-02T23:23:06.469Z,101559.73
2018-06-02T23:25:34.621Z,101562.74
2018-06-02T23:28:02.825Z,101565.56
2018-06-02T23:30:31.016Z,101566.72
2018-06-02T23:32:59.242Z,101569.33
2018-06-02T23:35:27.465Z,101564.34
2018-06-02T23:37:55.659Z,101563.87
2018-06-02T23:40:23.834Z,101564.41
2018-06-02T23:42:52.029Z,101562.96
2018-06-02T23:45:20.254Z,101568.64
2018-06-02T23:47:48.439Z,101566.91
2018-06-02T23:50:16.618Z,101568.86
2018-06-02T23:52:44.853Z,101563.97
2018-06-02T23:55:13.018Z,101566.55
2018-06-02T23:57:41.224Z,101572.22
